createdAt,value
2018-09-08T00:02:32.324Z,28.97
2018-09-08T00:05:05.302Z,30.20
2018-09-08T00:07:39.123Z,28.57
2018-09-08T00:10:12.823Z,29.13
2018-09-08T00:12:45.504Z,30.77
2018-09-08T00:15:22.872Z,31.50
2018-09-08T00:18:00.145Z,29.73
2018-09-08T00:20:37.392Z,30.47
2018-09-08T00:23:14.415Z,32.20
2018-09-08T00:25:51.324Z,30.80
2018-09-08T00:28:35.187Z,29.60
2018-09-08T00:31:12.162Z,31.93
2018-09-08T00:33:48.056Z,35.73
2018-09-08T00:36:20.929Z,31.27
2018-09-08T00:38:55.029Z,30.10
2018-09-08T00:41:27.914Z,32.23
2018-09-08T00:44:01.448Z,30.13
2018-09-08T00:46:34.376Z,33.73
2018-09-08T00:49:08.286Z,34.13
2018-09-08T00:51:41.063Z,31.73
2018-09-08T00:54:13.690Z,33.70
2018-09-08T00:56:46.746Z,32.83
2018-09-08T00:59:19.746Z,31.13
2018-09-08T01:01:52.533Z,33.50
2018-09-08T01:04:28.191Z,31.10
2018-09-08T01:07:01.218Z,25.90
2018-09-08T01:09:35.616Z,25.37
2018-09-08T01:12:08.471Z,28.00
2018-09-08T01:14:41.853Z,30.37
2018-09-08T01:17:15.580Z,25.23
2018-09-08T01:19:48.433Z,24.13
2018-09-08T01:22:24.799Z,26.03
2018-09-08T01:24:58.304Z,29.00
2018-09-08T01:27:31.363Z,26.90
2018-09-08T01:30:06.455Z,30.53
2018-09-08T01:32:39.127Z,29.70
2018-09-08T01:35:12.609Z,28.20
2018-09-08T01:37:46.040Z,26.00
2018-09-08T01:40:19.157Z,27.73
2018-09-08T01:42:53.128Z,28.62
2018-09-08T01:45:29.530Z,32.13
2018-09-08T01:48:03.327Z,36.83
2018-09-08T01:50:40.258Z,32.07
2018-09-08T01:53:14.762Z,25.93
2018-09-08T01:55:48.371Z,28.60
2018-09-08T01:58:23.729Z,20.00
2018-09-08T02:00:58.467Z,18.47
2018-09-08T02:03:31.367Z,16.03
2018-09-08T02:06:07.171Z,13.80
2018-09-08T02:11:24.620Z,15.27
2018-09-08T02:14:01.232Z,15.37
2018-09-08T02:16:34.780Z,19.30
2018-09-08T02:19:07.942Z,15.60
2018-09-08T02:21:40.776Z,16.70
2018-09-08T02:24:14.287Z,18.03
2018-09-08T02:26:51.550Z,19.47
2018-09-08T02:29:26.374Z,22.50
2018-09-08T02:31:59.735Z,21.93
2018-09-08T02:34:33.779Z,22.83
2018-09-08T02:37:07.768Z,20.23
2018-09-08T02:39:41.237Z,17.83
2018-09-08T02:42:14.453Z,22.37
2018-09-08T02:44:47.506Z,22.90
2018-09-08T02:47:20.925Z,25.37
2018-09-08T02:50:04.282Z,33.13
2018-09-08T02:52:34.690Z,40.92
2018-09-08T02:55:04.467Z,29.87
2018-09-08T02:57:34.472Z,23.60
2018-09-08T03:00:05.820Z,27.00
2018-09-08T03:02:38.056Z,24.57
2018-09-08T03:05:11.403Z,23.13
2018-09-08T03:07:41.709Z,20.13
2018-09-08T03:10:12.929Z,22.73
2018-09-08T03:12:46.167Z,21.37
2018-09-08T03:15:16.557Z,23.50
2018-09-08T03:17:46.350Z,26.30
2018-09-08T03:20:16.559Z,24.70
2018-09-08T03:25:29.418Z,51.70
2018-09-08T03:27:59.990Z,29.37
2018-09-08T03:30:30.127Z,22.20
2018-09-08T03:33:01.462Z,24.63
2018-09-08T03:35:33.271Z,20.60
2018-09-08T03:38:04.608Z,20.57
2018-09-08T03:40:34.964Z,17.60
2018-09-08T03:45:39.845Z,23.30
2018-09-08T03:48:13.839Z,37.60
2018-09-08T03:50:45.920Z,34.90
2018-09-08T03:53:16.402Z,28.83
2018-09-08T03:55:47.563Z,21.90
2018-09-08T03:58:19.188Z,20.23
2018-09-08T04:00:49.763Z,18.73
2018-09-08T04:03:24.836Z,16.77
2018-09-08T04:05:59.513Z,18.30
2018-09-08T04:08:34.029Z,15.37
2018-09-08T04:13:46.343Z,12.20
2018-09-08T04:16:19.511Z,13.80
2018-09-08T04:18:53.834Z,21.13
2018-09-08T04:21:27.036Z,31.13
2018-09-08T04:24:00.321Z,29.07
2018-09-08T04:26:33.358Z,23.83
2018-09-08T04:29:06.527Z,18.47
2018-09-08T04:31:39.590Z,11.87
2018-09-08T04:34:15.475Z,15.23
2018-09-08T04:36:48.534Z,15.60
2018-09-08T04:39:21.386Z,14.73
2018-09-08T04:41:54.432Z,15.83
2018-09-08T04:44:27.202Z,13.77
2018-09-08T04:47:00.071Z,13.43
2018-09-08T04:49:33.064Z,11.07
2018-09-08T04:52:05.999Z,13.67
2018-09-08T04:54:39.163Z,16.67
2018-09-08T04:57:12.379Z,12.97
2018-09-08T04:59:45.445Z,15.13
2018-09-08T05:02:18.314Z,13.13
2018-09-08T05:04:51.266Z,14.73
2018-09-08T05:07:24.007Z,19.07
2018-09-08T05:09:56.864Z,24.95
2018-09-08T05:12:30.054Z,39.23
2018-09-08T05:15:03.317Z,71.60
2018-09-08T05:17:36.106Z,78.47
2018-09-08T05:20:10.772Z,52.07
2018-09-08T05:22:43.645Z,46.20
2018-09-08T05:25:16.779Z,66.93
2018-09-08T05:27:49.487Z,65.70
2018-09-08T05:30:22.818Z,94.23
2018-09-08T05:32:55.580Z,50.08
2018-09-08T05:35:28.312Z,45.60
2018-09-08T05:38:01.300Z,31.43
2018-09-08T05:40:34.103Z,21.70
2018-09-08T05:43:06.813Z,20.57
2018-09-08T05:45:39.703Z,23.77
2018-09-08T05:48:12.467Z,37.00
2018-09-08T05:50:45.014Z,65.30
2018-09-08T05:53:17.666Z,101.27
2018-09-08T05:55:50.286Z,89.00
2018-09-08T05:58:23.051Z,71.27
2018-09-08T06:00:55.859Z,50.10
2018-09-08T06:03:28.551Z,42.17
2018-09-08T06:06:01.373Z,38.00
2018-09-08T06:08:34.152Z,41.00
2018-09-08T06:11:06.884Z,41.30
2018-09-08T06:13:39.867Z,58.27
2018-09-08T06:16:12.642Z,69.23
2018-09-08T06:18:45.452Z,64.53
2018-09-08T06:21:18.323Z,54.17
2018-09-08T06:23:52.387Z,58.73
2018-09-08T06:26:25.025Z,48.43
2018-09-08T06:28:57.823Z,41.43
2018-09-08T06:31:30.649Z,31.07
2018-09-08T06:34:03.131Z,23.37
2018-09-08T06:36:35.998Z,21.68
2018-09-08T06:39:12.284Z,21.03
2018-09-08T06:41:45.746Z,21.57
2018-09-08T06:44:18.597Z,23.53
2018-09-08T06:46:51.264Z,19.17
2018-09-08T06:49:23.899Z,18.17
2018-09-08T06:51:56.651Z,14.33
2018-09-08T06:54:29.370Z,15.43
2018-09-08T06:57:02.111Z,14.97
2018-09-08T06:59:34.778Z,15.87
2018-09-08T07:02:07.516Z,15.07
2018-09-08T07:04:40.145Z,14.63
2018-09-08T07:07:14.162Z,16.73
2018-09-08T07:09:46.900Z,14.30
2018-09-08T07:12:19.758Z,14.63
2018-09-08T07:14:52.382Z,12.87
2018-09-08T07:17:25.031Z,14.43
2018-09-08T07:19:57.832Z,17.57
2018-09-08T07:22:30.529Z,15.08
2018-09-08T07:25:03.496Z,15.63
2018-09-08T07:27:36.184Z,16.00
2018-09-08T07:30:08.904Z,15.90
2018-09-08T07:32:41.802Z,15.87
2018-09-08T07:35:14.517Z,19.13
2018-09-08T07:37:47.000Z,19.10
2018-09-08T07:40:19.826Z,19.20
2018-09-08T07:42:52.513Z,16.77
2018-09-08T07:45:25.064Z,17.60
2018-09-08T07:47:57.867Z,15.33
2018-09-08T07:50:30.666Z,18.80
2018-09-08T07:53:03.296Z,13.80
2018-09-08T07:55:36.220Z,18.90
2018-09-08T07:58:08.962Z,15.67
2018-09-08T08:00:41.826Z,16.53
2018-09-08T08:03:14.621Z,15.33
2018-09-08T08:05:47.247Z,15.50
2018-09-08T08:08:20.036Z,15.23
2018-09-08T08:10:52.742Z,17.10
2018-09-08T08:13:25.349Z,17.27
2018-09-08T08:15:58.331Z,13.87
2018-09-08T08:18:31.029Z,14.77
2018-09-08T08:21:03.776Z,13.70
2018-09-08T08:23:36.690Z,15.40
2018-09-08T08:26:09.557Z,14.63
2018-09-08T08:28:42.664Z,13.80
2018-09-08T08:31:15.387Z,13.13
2018-09-08T08:33:48.135Z,27.63
2018-09-08T08:36:21.050Z,53.93
2018-09-08T08:38:53.788Z,33.57
2018-09-08T08:41:26.549Z,23.83
2018-09-08T08:43:59.262Z,26.03
2018-09-08T08:46:32.040Z,31.05
2018-09-08T08:49:05.192Z,19.30
2018-09-08T08:51:47.446Z,21.13
2018-09-08T08:54:23.971Z,18.67
2018-09-08T08:56:56.842Z,17.23
2018-09-08T08:59:29.939Z,20.90
2018-09-08T09:02:02.740Z,18.57
2018-09-08T09:04:35.352Z,18.13
2018-09-08T09:07:08.696Z,20.63
2018-09-08T09:09:41.414Z,17.70
2018-09-08T09:12:14.314Z,19.17
2018-09-08T09:14:46.969Z,22.33
2018-09-08T09:17:19.893Z,21.20
2018-09-08T09:20:01.878Z,24.30
2018-09-08T09:22:43.821Z,20.00
2018-09-08T09:25:16.630Z,17.53
2018-09-08T09:27:50.887Z,17.33
2018-09-08T09:30:25.293Z,20.32
2018-09-08T09:32:57.956Z,19.10
2018-09-08T09:35:30.854Z,15.97
2018-09-08T09:38:03.563Z,17.57
2018-09-08T09:40:36.332Z,20.85
2018-09-08T09:43:09.257Z,21.73
2018-09-08T09:45:42.017Z,23.23
2018-09-08T09:48:14.837Z,25.05
2018-09-08T09:50:47.736Z,34.10
2018-09-08T09:53:20.526Z,37.40
2018-09-08T09:55:53.142Z,30.40
2018-09-08T09:58:26.034Z,22.93
2018-09-08T10:01:03.098Z,20.47
2018-09-08T10:03:35.871Z,21.33
2018-09-08T10:06:08.487Z,17.23
2018-09-08T10:08:41.446Z,17.53
2018-09-08T10:11:14.178Z,20.37
2018-09-08T10:13:47.237Z,22.07
2018-09-08T10:16:19.950Z,20.90
2018-09-08T10:18:53.303Z,15.83
2018-09-08T10:21:25.839Z,19.30
2018-09-08T10:24:05.152Z,20.40
2018-09-08T10:26:31.483Z,17.17
2018-09-08T10:29:04.294Z,18.47
2018-09-08T10:31:37.818Z,16.90
2018-09-08T10:34:10.827Z,15.37
2018-09-08T10:36:43.501Z,20.45
2018-09-08T10:39:16.248Z,17.37
2018-09-08T10:41:48.977Z,15.30
2018-09-08T10:44:21.899Z,22.40
2018-09-08T10:46:54.694Z,19.25
2018-09-08T10:49:29.252Z,19.33
2018-09-08T10:53:08.227Z,20.37
2018-09-08T10:55:42.442Z,19.95
2018-09-08T10:58:16.194Z,20.53
2018-09-08T11:00:53.264Z,17.87
2018-09-08T11:03:26.936Z,20.57
2018-09-08T11:06:00.866Z,19.73
2018-09-08T11:08:35.209Z,17.70
2018-09-08T11:11:09.199Z,18.87
2018-09-08T11:13:42.837Z,29.47
2018-09-08T11:16:16.269Z,42.97
2018-09-08T11:18:50.254Z,89.37
2018-09-08T11:21:24.165Z,192.67
2018-09-08T11:23:58.400Z,243.10
2018-09-08T11:26:32.487Z,266.73
2018-09-08T11:29:05.715Z,213.53
2018-09-08T11:31:38.527Z,189.23
2018-09-08T11:34:12.638Z,171.93
2018-09-08T11:36:45.483Z,143.20
2018-09-08T11:39:18.341Z,136.60
2018-09-08T11:41:51.947Z,138.30
2018-09-08T11:44:24.719Z,108.53
2018-09-08T11:46:57.469Z,114.90
2018-09-08T11:49:30.290Z,135.70
2018-09-08T11:52:02.946Z,85.10
2018-09-08T11:54:35.725Z,81.57
2018-09-08T11:57:08.384Z,77.93
2018-09-08T11:59:40.975Z,75.67
2018-09-08T12:02:14.056Z,63.20
2018-09-08T12:04:51.015Z,45.70
2018-09-08T12:07:31.557Z,41.77
2018-09-08T12:10:04.495Z,57.30
2018-09-08T12:12:37.842Z,60.33
2018-09-08T12:15:11.001Z,64.03
2018-09-08T12:17:43.922Z,55.27
2018-09-08T12:20:16.781Z,69.57
2018-09-08T12:22:56.399Z,51.83
2018-09-08T12:25:36.714Z,46.07
2018-09-08T12:28:14.696Z,51.00
2018-09-08T12:30:49.876Z,53.03
2018-09-08T12:33:25.670Z,42.73
2018-09-08T12:35:58.578Z,51.40
2018-09-08T12:38:31.683Z,43.23
2018-09-08T12:41:04.514Z,41.83
2018-09-08T12:43:37.692Z,52.80
2018-09-08T12:46:18.437Z,46.30
2018-09-08T12:48:51.069Z,27.60
2018-09-08T12:51:24.939Z,30.40
2018-09-08T12:53:57.868Z,33.27
2018-09-08T12:56:37.599Z,24.47
2018-09-08T12:59:11.971Z,27.93
2018-09-08T13:01:54.730Z,20.53
2018-09-08T13:04:37.653Z,21.20
2018-09-08T13:07:22.132Z,22.03
2018-09-08T13:10:00.515Z,24.87
2018-09-08T13:12:34.524Z,21.13
2018-09-08T13:15:19.197Z,17.80
2018-09-08T13:18:03.036Z,29.60
2018-09-08T13:20:47.726Z,33.10
2018-09-08T13:23:20.491Z,24.23
2018-09-08T13:25:55.545Z,21.57
2018-09-08T13:28:28.383Z,26.90
2018-09-08T13:31:01.132Z,23.93
2018-09-08T13:33:34.020Z,31.27
2018-09-08T13:36:06.820Z,26.00
2018-09-08T13:38:39.757Z,23.50
2018-09-08T13:41:16.371Z,31.03
2018-09-08T13:43:49.082Z,28.33
2018-09-08T13:46:21.839Z,24.97
2018-09-08T13:48:54.746Z,39.07
2018-09-08T13:51:27.657Z,23.03
2018-09-08T13:54:00.546Z,26.00
2018-09-08T13:56:33.522Z,17.63
2018-09-08T13:59:06.246Z,27.23
2018-09-08T14:01:38.868Z,21.07
2018-09-08T14:04:11.710Z,17.07
2018-09-08T14:06:44.374Z,20.87
2018-09-08T14:09:16.965Z,27.87
2018-09-08T14:11:49.792Z,27.20
2018-09-08T14:14:23.311Z,21.57
2018-09-08T14:16:56.026Z,21.43
2018-09-08T14:19:28.716Z,23.00
2018-09-08T14:22:02.429Z,22.40
2018-09-08T14:24:35.343Z,15.97
2018-09-08T14:27:10.123Z,16.27
2018-09-08T14:29:42.841Z,29.83
2018-09-08T14:32:15.603Z,20.63
2018-09-08T14:34:48.429Z,25.13
2018-09-08T14:37:22.263Z,23.03
2018-09-08T14:40:07.045Z,16.27
2018-09-08T14:42:41.138Z,16.17
2018-09-08T14:45:18.873Z,13.73
2018-09-08T14:47:55.694Z,18.10
2018-09-08T14:50:34.897Z,17.70
2018-09-08T14:53:11.343Z,12.20
2018-09-08T14:55:49.905Z,11.77
2018-09-08T14:58:25.204Z,12.30
2018-09-08T15:01:01.975Z,19.97
2018-09-08T15:03:34.932Z,14.50
2018-09-08T15:06:08.743Z,17.33
2018-09-08T15:08:41.672Z,14.25
2018-09-08T15:11:14.481Z,10.97
2018-09-08T15:13:47.255Z,18.37
2018-09-08T15:16:20.164Z,21.07
2018-09-08T15:18:52.945Z,16.52
2018-09-08T15:21:25.559Z,14.20
2018-09-08T15:23:59.104Z,13.20
2018-09-08T15:26:32.476Z,15.10
2018-09-08T15:29:05.553Z,12.78
2018-09-08T15:31:38.366Z,9.83
2018-09-08T15:34:11.165Z,12.60
2018-09-08T15:36:44.100Z,14.23
2018-09-08T15:39:17.069Z,12.17
2018-09-08T15:41:49.654Z,12.17
2018-09-08T15:47:17.008Z,11.33
2018-09-08T15:49:50.439Z,13.45
2018-09-08T15:52:23.778Z,15.73
2018-09-08T15:54:56.877Z,24.10
2018-09-08T15:57:29.872Z,14.07
2018-09-08T16:00:02.666Z,11.80
2018-09-08T16:02:36.254Z,12.03
2018-09-08T16:05:09.197Z,14.93
2018-09-08T16:07:43.272Z,13.73
2018-09-08T16:10:16.664Z,19.00
2018-09-08T16:12:49.795Z,14.40
2018-09-08T16:15:22.902Z,15.37
2018-09-08T16:17:56.093Z,9.80
2018-09-08T16:21:57.847Z,12.35
2018-09-08T16:24:31.055Z,12.20
2018-09-08T16:27:04.286Z,14.87
2018-09-08T16:29:37.316Z,13.03
2018-09-08T16:32:10.328Z,12.30
2018-09-08T16:34:43.504Z,10.43
2018-09-08T16:37:16.749Z,10.17
2018-09-08T16:39:50.461Z,13.07
2018-09-08T16:42:23.717Z,10.97
2018-09-08T16:44:56.840Z,10.73
2018-09-08T16:47:30.556Z,8.53
2018-09-08T16:50:03.734Z,11.50
2018-09-08T16:52:37.048Z,18.17
2018-09-08T16:55:10.144Z,16.82
2018-09-08T16:57:43.769Z,12.47
2018-09-08T17:00:18.368Z,14.80
2018-09-08T17:02:51.960Z,8.70
2018-09-08T17:05:25.319Z,23.07
2018-09-08T17:07:58.843Z,15.40
2018-09-08T17:10:32.176Z,15.23
2018-09-08T17:13:05.167Z,12.03
2018-09-08T17:15:38.366Z,14.07
2018-09-08T17:18:11.397Z,14.87
2018-09-08T17:20:45.314Z,13.00
2018-09-08T17:23:18.441Z,14.93
2018-09-08T17:25:51.444Z,16.80
2018-09-08T17:28:24.939Z,16.65
2018-09-08T17:30:58.209Z,15.93
2018-09-08T17:33:31.599Z,17.37
2018-09-08T17:36:04.942Z,18.00
2018-09-08T17:38:38.453Z,15.50
2018-09-08T17:41:11.886Z,17.95
2018-09-08T17:43:45.541Z,16.97
2018-09-08T17:46:18.798Z,15.05
2018-09-08T17:48:52.086Z,18.75
2018-09-08T17:51:25.430Z,15.35
2018-09-08T17:53:58.575Z,13.75
2018-09-08T17:56:31.944Z,13.60
2018-09-08T17:59:05.319Z,15.08
2018-09-08T18:01:38.785Z,15.83
2018-09-08T18:04:12.037Z,22.07
2018-09-08T18:06:45.227Z,17.92
2018-09-08T18:09:18.659Z,13.25
2018-09-08T18:11:53.198Z,14.85
2018-09-08T18:14:26.633Z,13.68
2018-09-08T18:16:59.810Z,17.05
2018-09-08T18:19:32.850Z,19.67
2018-09-08T18:22:06.125Z,13.35
2018-09-08T18:24:39.099Z,14.93
2018-09-08T18:27:12.399Z,20.55
2018-09-08T18:29:45.506Z,17.80
2018-09-08T18:32:18.697Z,15.83
2018-09-08T18:34:51.457Z,16.45
2018-09-08T18:37:24.740Z,23.60
2018-09-08T18:39:57.852Z,12.75
2018-09-08T18:42:31.013Z,15.20
2018-09-08T18:45:04.320Z,23.07
2018-09-08T18:47:37.709Z,14.63
2018-09-08T18:50:11.379Z,15.38
2018-09-08T18:52:44.858Z,15.50
2018-09-08T18:55:18.025Z,13.98
2018-09-08T18:57:51.034Z,17.85
2018-09-08T19:00:24.349Z,12.13
2018-09-08T19:02:57.433Z,20.88
2018-09-08T19:05:30.345Z,59.27
2018-09-08T19:23:35.894Z,21.62
2018-09-08T19:26:09.174Z,16.48
2018-09-08T19:32:36.438Z,22.70
2018-09-08T19:35:14.244Z,24.27
2018-09-08T19:37:47.674Z,18.63
2018-09-08T19:40:25.776Z,17.37
2018-09-08T19:43:01.205Z,18.25
2018-09-08T19:45:36.643Z,22.87
2018-09-08T19:48:13.161Z,17.67
2018-09-08T19:50:46.932Z,23.60
2018-09-08T19:53:24.686Z,26.77
2018-09-08T19:55:58.145Z,30.77
2018-09-08T19:58:36.061Z,28.98
2018-09-08T20:01:09.924Z,18.40
2018-09-08T20:03:43.705Z,17.07
2018-09-08T20:06:17.570Z,17.27
2018-09-08T20:08:50.903Z,16.17
2018-09-08T20:11:24.550Z,20.63
2018-09-08T20:13:59.063Z,23.40
2018-09-08T20:18:01.028Z,20.97
2018-09-08T20:20:34.259Z,19.27
2018-09-08T20:23:07.584Z,23.07
2018-09-08T20:25:41.885Z,20.53
2018-09-08T20:28:15.162Z,18.97
2018-09-08T20:30:48.190Z,21.83
2018-09-08T20:33:21.670Z,23.87
2018-09-08T20:35:54.792Z,25.53
2018-09-08T20:38:27.809Z,20.50
2018-09-08T20:41:01.187Z,22.60
2018-09-08T20:43:34.382Z,22.50
2018-09-08T20:46:07.492Z,22.43
2018-09-08T20:48:40.901Z,24.03
2018-09-08T20:51:14.574Z,28.87
2018-09-08T20:53:48.127Z,26.20
2018-09-08T20:56:21.804Z,27.50
2018-09-08T20:58:56.014Z,35.20
2018-09-08T21:01:29.850Z,30.43
2018-09-08T21:04:03.190Z,33.23
2018-09-08T21:06:36.697Z,35.00
2018-09-08T21:09:10.459Z,32.47
2018-09-08T21:11:43.746Z,25.50
2018-09-08T21:14:17.086Z,24.77
2018-09-08T21:16:50.242Z,26.90
2018-09-08T21:19:23.652Z,34.80
2018-09-08T21:21:56.811Z,37.40
2018-09-08T21:24:29.776Z,45.57
2018-09-08T21:28:31.662Z,55.80
2018-09-08T21:31:04.716Z,34.58
2018-09-08T21:33:37.869Z,39.30
2018-09-08T21:36:10.757Z,44.77
2018-09-08T21:38:44.727Z,43.30
2018-09-08T21:41:18.315Z,40.90
2018-09-08T21:43:51.560Z,48.60
2018-09-08T21:46:24.377Z,48.10
2018-09-08T21:48:57.403Z,42.53
2018-09-08T21:51:30.458Z,48.43
2018-09-08T21:54:03.862Z,47.17
2018-09-08T21:56:36.900Z,53.53
2018-09-08T21:59:09.854Z,51.43
2018-09-08T22:01:44.107Z,48.80
2018-09-08T22:04:17.134Z,40.60
2018-09-08T22:06:50.272Z,46.90
2018-09-08T22:09:23.721Z,45.27
2018-09-08T22:11:56.670Z,47.20
2018-09-08T22:14:30.071Z,43.47
2018-09-08T22:17:03.253Z,47.40
2018-09-08T22:19:36.485Z,38.17
2018-09-08T22:22:09.738Z,41.37
2018-09-08T22:24:50.110Z,43.80
2018-09-08T22:30:18.255Z,40.67
2018-09-08T22:32:55.971Z,39.18
2018-09-08T22:35:29.471Z,37.87
2018-09-08T22:38:02.778Z,46.77
2018-09-08T22:40:37.009Z,37.03
2018-09-08T22:43:10.457Z,40.57
2018-09-08T22:45:43.479Z,38.63
2018-09-08T22:48:16.541Z,38.90
2018-09-08T22:50:50.763Z,38.13
2018-09-08T22:53:23.955Z,39.43
2018-09-08T22:55:56.952Z,39.58
2018-09-08T22:58:30.119Z,40.17
2018-09-08T23:01:02.951Z,34.07
2018-09-08T23:03:36.060Z,38.70
2018-09-08T23:06:09.066Z,37.77
2018-09-08T23:08:42.078Z,41.37
2018-09-08T23:11:14.946Z,35.50
2018-09-08T23:13:48.097Z,40.00
2018-09-08T23:16:22.007Z,39.60
2018-09-08T23:18:55.220Z,34.80
2018-09-08T23:21:28.121Z,37.53
2018-09-08T23:24:02.567Z,40.17
2018-09-08T23:26:35.574Z,39.83
2018-09-08T23:29:08.846Z,36.83
2018-09-08T23:31:47.760Z,35.53
2018-09-08T23:34:21.527Z,38.93
2018-09-08T23:36:55.761Z,41.53
2018-09-08T23:39:30.536Z,45.65
2018-09-08T23:42:03.878Z,40.20
2018-09-08T23:44:37.073Z,36.07
2018-09-08T23:47:10.310Z,37.50
2018-09-08T23:49:44.113Z,36.80
2018-09-08T23:52:17.352Z,35.97
2018-09-08T23:54:50.386Z,37.45
2018-09-08T23:57:23.614Z,35.70
2018-09-08T23:59:56.690Z,34.43
